Fairfax, Alabama
Current Conditions -  °F | °C
As of 10:15 AM on Friday 21 Nov 2014 (Local Time) from KLGC Reporting Station
Clear Clear  
Wind Chill: 60°   Ceiling: Unl
Heat Index: 60°   Visibility: 10mi
Dew Point: 34°   Wind: 3mph
Humidity: 37%   Direction: 80°E
Pressure: 30.41"   Gusts: NA
Location:  32.7858°N, 85.1946°W
Report Text: KLGC 211615Z AUTO 08003KT 10SM CLR 16/01 A3041 RMK AO2 T01550009
Loading
Personal Weather Stations






























Interactive Weather Map New forecast layout! Learn more

10-Day Weather Forecast

Advertisements
Track Severe Weather on mobile